This is the latest recevied weather packets stored in our database for station/object K7ZQU-7. If no packets are shown the sender has not sent any weather packets the latest 10 day(s).
| Time | Temp. | Humidity | Pressure | Rain* | Wind** | Luminosity | Snow |
|---|---|---|---|---|---|---|---|
| 1777987653 | 7.78° C | 92% | 1012.4 hPa | 0 mm | 1.79 m/s, 283° | - | - |
| 1777987354 | 7.78° C | 92% | 1012.4 hPa | 0 mm | 0.45 m/s, 269° | - | - |
| 1777987052 | 7.78° C | 91% | 1012.2 hPa | 0 mm | 1.34 m/s, 315° | - | - |
| 1777984657 | 8.33° C | 91% | 1012.1 hPa | 0 mm | 1.34 m/s, 288° | - | - |
| 1777984358 | 8.33° C | 91% | 1012.1 hPa | 0 mm | 1.34 m/s, 339° | - | - |
| 1777984057 | 8.33° C | 91% | 1012 hPa | 0 mm | 0 m/s | - | - |
| 1777983160 | 8.33° C | 91% | 1012.1 hPa | 0 mm | 0.89 m/s, 298° | - | - |
| 1777982861 | 8.33° C | 91% | 1012 hPa | 0 mm | 1.79 m/s, 325° | - | - |
| 1777981662 | 8.33° C | 90% | 1012 hPa | 0 mm | 0 m/s | - | - |
| 1777981363 | 8.33° C | 91% | 1012 hPa | 0 mm | 0.89 m/s, 291° | - | - |
| 1777980164 | 7.78° C | 91% | 1012.1 hPa | 0 mm | 0.89 m/s, 304° | - | - |
| 1777979264 | 7.78° C | 90% | 1012.1 hPa | 0 mm | 1.34 m/s, 297° | - | - |
| 1777977169 | 8.33° C | 89% | 1012 hPa | 0 mm | 1.34 m/s, 276° | - | - |
| 1777976269 | 8.33° C | 89% | 1012.1 hPa | 0 mm | 1.34 m/s, 269° | - | - |
| 1777975372 | 8.33° C | 89% | 1012.1 hPa | 0 mm | 2.24 m/s, 262° | - | - |
| 1777975070 | 8.33° C | 89% | 1012.1 hPa | 0 mm | 2.24 m/s, 318° | - | - |
| 1777973573 | 8.33° C | 90% | 1012.1 hPa | 0 mm | 0.45 m/s, 290° | - | - |
| 1777973274 | 8.33° C | 91% | 1012.1 hPa | 0 mm | 0 m/s | - | - |
| 1777972975 | 8.33° C | 90% | 1012.1 hPa | 0 mm | 0.45 m/s, 301° | - | - |
| 1777972676 | 8.33° C | 90% | 1012.1 hPa | 0 mm | 0.89 m/s, 321° | - | - |
| 1777971776 | 8.33° C | 90% | 1012.1 hPa | 0 mm | 0.89 m/s, 312° | - | - |
| 1777970578 | 8.33° C | 89% | 1012.4 hPa | 0 mm | 0 m/s | - | - |
| 1777969980 | 8.33° C | 90% | 1012.4 hPa | 0 mm | 0.45 m/s, 271° | - | - |
| 1777969681 | 8.33° C | 90% | 1012.4 hPa | 0 mm | 0.89 m/s, 350° | - | - |
| 1777969382 | 8.33° C | 90% | 1012.4 hPa | 0 mm | 0.45 m/s, 319° | - | - |
* Rain latest hour (hover to see other rain measurements)
** Current wind speed in m/s (hover to see current wind gust speed)